createdAt,value
2022-12-04T00:00:48.843Z,99324.50
2022-12-04T00:05:51.802Z,99334.66
2022-12-04T00:10:56.084Z,99343.50
2022-12-04T00:15:59.343Z,99340.34
2022-12-04T00:21:04.692Z,99331.50
2022-12-04T00:26:11.543Z,99339.44
2022-12-04T00:31:17.648Z,99326.50
2022-12-04T00:36:25.747Z,99324.88
2022-12-04T00:41:32.236Z,99329.53
2022-12-04T00:46:35.165Z,99325.63
2022-12-04T00:51:38.206Z,99330.50
2022-12-04T00:56:42.538Z,99331.94
2022-12-04T01:01:45.568Z,99330.88
2022-12-04T01:06:48.569Z,99321.13
2022-12-04T01:11:52.887Z,99319.84
2022-12-04T01:16:55.867Z,99319.78
2022-12-04T01:21:58.868Z,99316.41
2022-12-04T01:27:03.366Z,99310.34
2022-12-04T01:32:06.825Z,99307.69
2022-12-04T01:37:09.885Z,99304.78
2022-12-04T01:42:16.374Z,99298.97
2022-12-04T01:47:19.317Z,99290.63
2022-12-04T01:52:24.652Z,99278.88
2022-12-04T01:57:33.085Z,99268.47
2022-12-04T02:02:38.872Z,99268.47
2022-12-04T02:07:44.238Z,99261.16
2022-12-04T02:12:58.345Z,99254.72
2022-12-04T02:18:07.201Z,99250.44
2022-12-04T02:23:57.985Z,99259.69
2022-12-04T02:29:08.258Z,99253.09
2022-12-04T02:34:15.950Z,99256.94
2022-12-04T02:39:23.139Z,99254.50
2022-12-04T02:44:31.870Z,99255.88
2022-12-04T02:49:39.989Z,99252.69
2022-12-04T02:54:47.524Z,99255.56
2022-12-04T02:59:54.853Z,99243.19
2022-12-04T03:05:04.199Z,99238.94
2022-12-04T03:10:13.239Z,99228.63
2022-12-04T03:15:21.080Z,99228.72
2022-12-04T03:20:25.356Z,99242.81
2022-12-04T03:25:34.377Z,99239.44
2022-12-04T03:30:45.324Z,99245.97
2022-12-04T03:35:53.836Z,99233.13
2022-12-04T03:41:04.461Z,99239.72
2022-12-04T03:46:13.784Z,99233.19
2022-12-04T03:51:19.488Z,99241.56
2022-12-04T03:56:25.786Z,99246.28
2022-12-04T04:01:36.294Z,99241.72
2022-12-04T04:06:43.828Z,99250.53
2022-12-04T04:11:50.963Z,99252.38
2022-12-04T04:17:16.507Z,99241.75
2022-12-04T04:22:39.787Z,99248.47
2022-12-04T04:27:43.172Z,99244.75
2022-12-04T04:32:54.260Z,99252.75
2022-12-04T04:38:02.774Z,99248.59
2022-12-04T04:43:10.862Z,99243.75
2022-12-04T04:48:18.114Z,99237.97
2022-12-04T04:53:26.840Z,99233.47
2022-12-04T04:58:29.754Z,99240.03
2022-12-04T05:03:34.954Z,99242.31
2022-12-04T05:08:37.902Z,99237.00
2022-12-04T05:13:41.122Z,99228.69
2022-12-04T05:19:05.657Z,99231.03
2022-12-04T05:24:09.501Z,99236.66
2022-12-04T05:29:12.420Z,99228.59
2022-12-04T05:34:16.680Z,99221.88
2022-12-04T05:39:19.549Z,99225.72
2022-12-04T05:44:22.428Z,99227.03
2022-12-04T05:49:26.876Z,99217.81
2022-12-04T05:54:29.801Z,99226.69
2022-12-04T05:59:32.941Z,99218.31
2022-12-04T06:04:38.476Z,99206.16
2022-12-04T06:09:41.443Z,99205.22
2022-12-04T06:14:44.353Z,99211.22
2022-12-04T06:19:48.764Z,99212.34
2022-12-04T06:24:51.778Z,99212.47
2022-12-04T06:29:54.868Z,99226.75
2022-12-04T06:34:59.226Z,99218.50
2022-12-04T06:40:02.170Z,99226.41
2022-12-04T06:45:06.533Z,99227.13
2022-12-04T06:50:11.650Z,99229.41
2022-12-04T06:55:14.543Z,99239.06
2022-12-04T07:00:18.212Z,99243.28
2022-12-04T07:05:22.462Z,99237.47
2022-12-04T07:10:25.353Z,99237.13
2022-12-04T07:15:28.336Z,99234.56
2022-12-04T07:20:33.034Z,99235.41
2022-12-04T07:25:40.367Z,99237.78
2022-12-04T07:30:43.526Z,99237.66
2022-12-04T07:35:56.468Z,99233.31
2022-12-04T07:41:00.475Z,99236.06
2022-12-04T07:46:07.417Z,99235.44
2022-12-04T07:51:13.619Z,99234.31
2022-12-04T07:56:17.706Z,99231.03
2022-12-04T08:01:22.509Z,99234.00
2022-12-04T08:06:29.257Z,99215.72
2022-12-04T08:11:32.238Z,99228.00
2022-12-04T08:16:35.259Z,99229.03
2022-12-04T08:21:39.588Z,99233.97
2022-12-04T08:26:42.496Z,99236.25
2022-12-04T08:31:45.440Z,99237.56
2022-12-04T08:36:49.684Z,99233.69
2022-12-04T08:41:56.927Z,99230.81
2022-12-04T08:47:00.282Z,99234.06
2022-12-04T08:52:04.775Z,99232.78
2022-12-04T08:57:07.978Z,99232.09
2022-12-04T09:02:11.648Z,99217.88
2022-12-04T09:07:15.942Z,99223.38
2022-12-04T09:12:19.148Z,99217.13
2022-12-04T09:17:22.039Z,99223.03
2022-12-04T09:22:26.311Z,99218.34
2022-12-04T09:27:29.607Z,99215.91
2022-12-04T09:32:32.547Z,99231.31
2022-12-04T09:37:38.589Z,99228.38
2022-12-04T09:42:47.024Z,99237.00
2022-12-04T09:47:53.420Z,99232.59
2022-12-04T09:53:02.315Z,99218.69
2022-12-04T09:58:08.635Z,99216.59
2022-12-04T10:03:16.726Z,99215.59
2022-12-04T10:08:23.950Z,99206.84
2022-12-04T10:13:46.114Z,99199.88
2022-12-04T10:18:54.897Z,99203.78
2022-12-04T10:24:12.729Z,99199.88
2022-12-04T10:29:21.110Z,99199.72
2022-12-04T10:34:26.923Z,99203.63
2022-12-04T10:39:37.201Z,99194.84
2022-12-04T10:44:40.314Z,99188.03
2022-12-04T10:49:43.441Z,99182.34
2022-12-04T10:54:51.115Z,99173.25
2022-12-04T10:59:56.260Z,99184.06
2022-12-04T11:05:01.726Z,99185.97
2022-12-04T11:10:08.759Z,99192.69
2022-12-04T11:15:15.863Z,99188.91
2022-12-04T11:20:21.098Z,99190.63
2022-12-04T11:25:28.335Z,99191.56
2022-12-04T11:30:35.378Z,99180.34
2022-12-04T11:35:38.479Z,99182.28
2022-12-04T11:40:48.106Z,99178.69
2022-12-04T11:45:59.325Z,99184.31
2022-12-04T11:51:11.299Z,99177.81
2022-12-04T11:56:24.676Z,99180.25
2022-12-04T12:01:41.484Z,99177.34
2022-12-04T12:06:57.779Z,99165.59
2022-12-04T12:12:07.168Z,99160.41
2022-12-04T12:17:17.188Z,99161.84
2022-12-04T12:22:35.513Z,99139.72
2022-12-04T12:27:59.435Z,99136.28
2022-12-04T12:33:11.041Z,99129.13
2022-12-04T12:38:18.489Z,99123.88
2022-12-04T12:43:30.293Z,99121.19
2022-12-04T12:48:41.254Z,99116.06
2022-12-04T12:53:48.942Z,99111.00
2022-12-04T12:58:57.425Z,99107.22
2022-12-04T13:04:10.790Z,99102.66
2022-12-04T13:09:21.446Z,99096.03
2022-12-04T13:14:25.857Z,99096.41
2022-12-04T13:19:33.579Z,99087.91
2022-12-04T13:24:57.810Z,99081.72
2022-12-04T13:30:11.676Z,99086.22
2022-12-04T13:35:25.687Z,99081.47
2022-12-04T13:40:41.581Z,99087.38
2022-12-04T13:45:48.092Z,99096.34
2022-12-04T13:51:16.516Z,99086.38
2022-12-04T13:56:27.713Z,99087.22
2022-12-04T14:01:39.450Z,99089.56
2022-12-04T14:06:46.450Z,99092.88
2022-12-04T14:11:54.324Z,99102.53
2022-12-04T14:17:00.757Z,99107.56
2022-12-04T14:22:04.248Z,99103.63
2022-12-04T14:27:33.709Z,99107.78
2022-12-04T14:32:38.186Z,99101.66
2022-12-04T14:37:50.778Z,99100.38
2022-12-04T14:42:54.891Z,99102.75
2022-12-04T14:48:18.847Z,99091.88
2022-12-04T14:53:35.045Z,99094.13
2022-12-04T14:58:39.941Z,99086.22
2022-12-04T15:03:47.425Z,99077.25
2022-12-04T15:08:52.124Z,99076.34
2022-12-04T15:13:55.163Z,99073.97
2022-12-04T15:19:00.962Z,99077.47
2022-12-04T15:24:09.488Z,99068.09
2022-12-04T15:29:21.267Z,99058.97
2022-12-04T15:34:34.492Z,99061.28
2022-12-04T15:39:38.350Z,99065.25
2022-12-04T15:44:50.861Z,99064.91
2022-12-04T15:49:55.824Z,99055.44
2022-12-04T15:55:02.034Z,99051.25
2022-12-04T16:00:07.382Z,99053.84
2022-12-04T16:05:27.533Z,99043.34
2022-12-04T16:10:33.691Z,99052.25
2022-12-04T16:15:39.460Z,99056.44
2022-12-04T16:20:43.812Z,99050.81
2022-12-04T16:25:52.295Z,99053.31
2022-12-04T16:30:56.511Z,99049.78
2022-12-04T16:36:00.868Z,99046.50
2022-12-04T16:41:05.882Z,99048.16
2022-12-04T16:46:14.244Z,99053.47
2022-12-04T16:51:21.555Z,99056.66
2022-12-04T16:56:24.504Z,99059.16
2022-12-04T17:01:36.311Z,99054.94
2022-12-04T17:06:41.016Z,99053.56
2022-12-04T17:11:44.397Z,99050.53
2022-12-04T17:16:47.429Z,99047.19
2022-12-04T17:21:53.413Z,99047.81
2022-12-04T17:26:56.410Z,99035.50
2022-12-04T17:31:59.411Z,99044.28
2022-12-04T17:37:03.727Z,99039.16
2022-12-04T17:42:06.751Z,99041.78
2022-12-04T17:47:09.755Z,99037.03
2022-12-04T17:52:14.115Z,99035.03
2022-12-04T17:57:17.328Z,99040.00
2022-12-04T18:02:20.208Z,99040.72
2022-12-04T18:07:24.548Z,99035.78
2022-12-04T18:12:27.548Z,99035.88
2022-12-04T18:17:30.473Z,99033.31
2022-12-04T18:22:34.826Z,99033.25
2022-12-04T18:27:41.661Z,99036.66
2022-12-04T18:32:45.257Z,99024.78
2022-12-04T18:37:49.647Z,99031.09
2022-12-04T18:42:52.908Z,99023.78
2022-12-04T18:47:56.296Z,99033.94
2022-12-04T18:53:02.030Z,99030.84
2022-12-04T18:58:05.507Z,99034.59
2022-12-04T19:03:08.450Z,99019.19
2022-12-04T19:08:12.914Z,99041.13
2022-12-04T19:13:15.888Z,99036.91
2022-12-04T19:18:19.275Z,99022.81
2022-12-04T19:23:23.747Z,99037.69
2022-12-04T19:28:28.537Z,99039.31
2022-12-04T19:33:31.582Z,99039.25
2022-12-04T19:38:36.300Z,99033.03
2022-12-04T19:43:40.301Z,99040.19
2022-12-04T19:48:46.048Z,99026.03
2022-12-04T19:53:50.711Z,99035.66
2022-12-04T19:58:54.936Z,99031.25
2022-12-04T20:03:58.797Z,99044.06
2022-12-04T20:09:04.974Z,99032.22
2022-12-04T20:14:09.045Z,99025.66
2022-12-04T20:19:15.711Z,99027.28
2022-12-04T20:24:20.041Z,99031.66
2022-12-04T20:29:22.943Z,99026.41
2022-12-04T20:34:25.840Z,99026.47
2022-12-04T20:39:30.405Z,99030.50
2022-12-04T20:44:33.333Z,99031.97
2022-12-04T20:49:36.299Z,99021.44
2022-12-04T20:54:41.788Z,99026.41
2022-12-04T20:59:44.804Z,99015.50
2022-12-04T21:04:47.768Z,99019.63
2022-12-04T21:09:52.104Z,99014.88
2022-12-04T21:15:12.257Z,99014.38
2022-12-04T21:20:15.533Z,99015.63
2022-12-04T21:25:19.765Z,99008.28
2022-12-04T21:30:22.651Z,99012.03
2022-12-04T21:35:25.569Z,99004.78
2022-12-04T21:40:29.835Z,98996.16
2022-12-04T21:45:32.748Z,98984.97
2022-12-04T21:50:35.829Z,98987.31
2022-12-04T21:55:40.155Z,98981.09
2022-12-04T22:00:43.086Z,98983.28
2022-12-04T22:05:46.260Z,98988.47
2022-12-04T22:10:50.512Z,98989.00
2022-12-04T22:15:53.539Z,98985.78
2022-12-04T22:20:56.556Z,98987.34
2022-12-04T22:26:07.100Z,98992.81
2022-12-04T22:31:12.221Z,98992.44
2022-12-04T22:36:17.076Z,98989.78
2022-12-04T22:41:24.377Z,98985.13
2022-12-04T22:46:27.515Z,98988.06
2022-12-04T22:51:30.476Z,98986.47
2022-12-04T22:56:35.208Z,98994.22
2022-12-04T23:01:38.152Z,98980.63
2022-12-04T23:06:41.086Z,98988.72
2022-12-04T23:11:45.957Z,98990.19
2022-12-04T23:16:49.811Z,98982.41
2022-12-04T23:21:56.898Z,98975.06
2022-12-04T23:27:01.600Z,98970.53
2022-12-04T23:32:04.737Z,98977.34
2022-12-04T23:37:07.748Z,98979.69
2022-12-04T23:42:12.059Z,98979.75
2022-12-04T23:47:15.072Z,98979.25
2022-12-04T23:52:18.064Z,98985.53
2022-12-04T23:57:22.403Z,98992.06
